Angola, Kansas
Current Conditions -  °F | °C
As of 3:32 AM on Saturday 20 Dec 2014 (Local Time) from KCFV Reporting Station
Haze Haze  
Wind Chill: 32°   Ceiling: 2100
Heat Index: 36°   Visibility: 4mi
Dew Point: 34°   Wind: 5mph
Humidity: 93%   Direction: 70°ENE
Pressure: 30.22"   Gusts: NA
Location:  37.067°N, 95.5817°W
Report Text: KCFV 200932Z AUTO 07004KT 4SM BR OVC021 02/01 A3022 RMK AO2 T00220011
Loading
Personal Weather Stations






























Interactive Weather Map New forecast layout! Learn more

10-Day Weather Forecast

Advertisements
Track Severe Weather on mobile